sensor_id;sensor_type;location;lat;lon;timestamp;P1;durP1;ratioP1;P2;durP2;ratioP2
65418;SDS011;52027;50.658;14.004;2022-12-24T00:02:15;10.05;;;6.07;;
65418;SDS011;52027;50.658;14.004;2022-12-24T00:04:40;11.60;;;6.32;;
65418;SDS011;52027;50.658;14.004;2022-12-24T00:07:06;10.30;;;5.97;;
65418;SDS011;52027;50.658;14.004;2022-12-24T00:09:31;9.63;;;6.10;;
65418;SDS011;52027;50.658;14.004;2022-12-24T00:11:57;11.05;;;6.35;;
65418;SDS011;52027;50.658;14.004;2022-12-24T00:14:22;9.93;;;6.10;;
65418;SDS011;52027;50.658;14.004;2022-12-24T00:16:47;10.45;;;6.15;;
65418;SDS011;52027;50.658;14.004;2022-12-24T00:19:13;10.32;;;6.03;;
65418;SDS011;52027;50.658;14.004;2022-12-24T00:21:38;9.52;;;5.90;;
65418;SDS011;52027;50.658;14.004;2022-12-24T00:24:04;10.23;;;5.88;;
65418;SDS011;52027;50.658;14.004;2022-12-24T00:26:30;9.65;;;6.10;;
65418;SDS011;52027;50.658;14.004;2022-12-24T00:28:56;10.88;;;6.18;;
65418;SDS011;52027;50.658;14.004;2022-12-24T00:31:21;10.82;;;6.20;;
65418;SDS011;52027;50.658;14.004;2022-12-24T00:33:47;11.00;;;6.53;;
65418;SDS011;52027;50.658;14.004;2022-12-24T00:36:13;10.32;;;6.13;;
65418;SDS011;52027;50.658;14.004;2022-12-24T00:38:38;9.75;;;5.90;;
65418;SDS011;52027;50.658;14.004;2022-12-24T00:41:04;10.38;;;5.82;;
65418;SDS011;52027;50.658;14.004;2022-12-24T00:43:31;10.40;;;6.07;;
65418;SDS011;52027;50.658;14.004;2022-12-24T00:45:57;10.65;;;5.97;;
65418;SDS011;52027;50.658;14.004;2022-12-24T00:48:23;9.60;;;5.95;;
65418;SDS011;52027;50.658;14.004;2022-12-24T00:50:49;11.38;;;6.10;;
65418;SDS011;52027;50.658;14.004;2022-12-24T00:53:15;9.63;;;5.65;;
65418;SDS011;52027;50.658;14.004;2022-12-24T00:55:41;9.80;;;6.00;;
65418;SDS011;52027;50.658;14.004;2022-12-24T00:58:06;10.00;;;6.00;;
65418;SDS011;52027;50.658;14.004;2022-12-24T01:00:32;10.05;;;6.03;;
65418;SDS011;52027;50.658;14.004;2022-12-24T01:02:58;9.68;;;5.85;;
65418;SDS011;52027;50.658;14.004;2022-12-24T01:05:23;10.73;;;6.20;;
65418;SDS011;52027;50.658;14.004;2022-12-24T01:07:49;10.13;;;5.95;;
65418;SDS011;52027;50.658;14.004;2022-12-24T01:10:16;10.52;;;6.10;;
65418;SDS011;52027;50.658;14.004;2022-12-24T01:12:43;9.98;;;6.00;;
65418;SDS011;52027;50.658;14.004;2022-12-24T01:15:09;10.35;;;6.10;;
65418;SDS011;52027;50.658;14.004;2022-12-24T01:17:36;9.23;;;5.65;;
65418;SDS011;52027;50.658;14.004;2022-12-24T01:20:02;9.82;;;5.93;;
65418;SDS011;52027;50.658;14.004;2022-12-24T01:22:29;10.35;;;6.07;;
65418;SDS011;52027;50.658;14.004;2022-12-24T01:24:54;9.75;;;5.65;;
65418;SDS011;52027;50.658;14.004;2022-12-24T01:27:20;10.73;;;6.22;;
65418;SDS011;52027;50.658;14.004;2022-12-24T01:29:45;9.73;;;6.00;;
65418;SDS011;52027;50.658;14.004;2022-12-24T01:32:10;9.00;;;5.95;;
65418;SDS011;52027;50.658;14.004;2022-12-24T01:34:36;9.57;;;5.97;;
65418;SDS011;52027;50.658;14.004;2022-12-24T01:37:01;9.40;;;5.65;;
65418;SDS011;52027;50.658;14.004;2022-12-24T01:39:27;9.45;;;5.85;;
65418;SDS011;52027;50.658;14.004;2022-12-24T01:41:52;11.18;;;6.07;;
65418;SDS011;52027;50.658;14.004;2022-12-24T01:44:40;10.70;;;6.03;;
65418;SDS011;52027;50.658;14.004;2022-12-24T01:47:11;10.80;;;5.80;;
65418;SDS011;52027;50.658;14.004;2022-12-24T01:49:43;9.10;;;5.43;;
65418;SDS011;52027;50.658;14.004;2022-12-24T01:52:16;9.73;;;5.68;;
65418;SDS011;52027;50.658;14.004;2022-12-24T01:57:34;10.70;;;6.15;;
65418;SDS011;52027;50.658;14.004;2022-12-24T02:00:05;10.05;;;5.90;;
65418;SDS011;52027;50.658;14.004;2022-12-24T02:02:34;10.10;;;6.10;;
65418;SDS011;52027;50.658;14.004;2022-12-24T02:05:02;10.20;;;6.03;;
65418;SDS011;52027;50.658;14.004;2022-12-24T02:07:31;9.77;;;6.00;;
65418;SDS011;52027;50.658;14.004;2022-12-24T02:09:57;10.38;;;6.07;;
65418;SDS011;52027;50.658;14.004;2022-12-24T02:12:25;9.27;;;5.85;;
65418;SDS011;52027;50.658;14.004;2022-12-24T02:14:52;10.15;;;5.93;;
65418;SDS011;52027;50.658;14.004;2022-12-24T02:20:00;10.25;;;5.78;;
65418;SDS011;52027;50.658;14.004;2022-12-24T02:31:48;9.57;;;5.90;;
65418;SDS011;52027;50.658;14.004;2022-12-24T02:34:28;9.38;;;5.70;;
65418;SDS011;52027;50.658;14.004;2022-12-24T02:39:47;8.68;;;5.50;;
65418;SDS011;52027;50.658;14.004;2022-12-24T02:42:19;9.90;;;6.10;;
65418;SDS011;52027;50.658;14.004;2022-12-24T02:47:16;10.00;;;6.00;;
65418;SDS011;52027;50.658;14.004;2022-12-24T02:49:44;8.75;;;5.43;;
65418;SDS011;52027;50.658;14.004;2022-12-24T02:55:05;9.18;;;5.38;;
65418;SDS011;52027;50.658;14.004;2022-12-24T03:00:27;9.15;;;5.53;;
65418;SDS011;52027;50.658;14.004;2022-12-24T03:06:31;9.27;;;5.63;;
65418;SDS011;52027;50.658;14.004;2022-12-24T03:08:55;10.85;;;6.05;;
65418;SDS011;52027;50.658;14.004;2022-12-24T03:11:22;10.32;;;6.15;;
65418;SDS011;52027;50.658;14.004;2022-12-24T03:13:48;9.50;;;5.55;;
65418;SDS011;52027;50.658;14.004;2022-12-24T03:16:16;9.93;;;5.90;;
65418;SDS011;52027;50.658;14.004;2022-12-24T03:18:48;10.02;;;6.00;;
65418;SDS011;52027;50.658;14.004;2022-12-24T03:23:53;9.95;;;5.75;;
65418;SDS011;52027;50.658;14.004;2022-12-24T03:26:20;8.98;;;5.68;;
65418;SDS011;52027;50.658;14.004;2022-12-24T03:28:45;9.88;;;5.60;;
65418;SDS011;52027;50.658;14.004;2022-12-24T03:31:12;9.45;;;5.65;;
65418;SDS011;52027;50.658;14.004;2022-12-24T03:33:38;9.23;;;5.47;;
65418;SDS011;52027;50.658;14.004;2022-12-24T03:36:04;10.23;;;6.07;;
65418;SDS011;52027;50.658;14.004;2022-12-24T03:38:30;8.95;;;5.68;;
65418;SDS011;52027;50.658;14.004;2022-12-24T03:40:56;10.52;;;6.22;;
65418;SDS011;52027;50.658;14.004;2022-12-24T03:43:21;10.10;;;5.85;;
65418;SDS011;52027;50.658;14.004;2022-12-24T03:45:47;10.55;;;5.90;;
65418;SDS011;52027;50.658;14.004;2022-12-24T03:48:12;10.20;;;5.78;;
65418;SDS011;52027;50.658;14.004;2022-12-24T03:50:38;9.88;;;5.70;;
65418;SDS011;52027;50.658;14.004;2022-12-24T03:53:03;8.73;;;5.60;;
65418;SDS011;52027;50.658;14.004;2022-12-24T03:55:28;9.00;;;5.45;;
65418;SDS011;52027;50.658;14.004;2022-12-24T03:57:54;9.40;;;5.57;;
65418;SDS011;52027;50.658;14.004;2022-12-24T04:00:19;9.80;;;5.63;;
65418;SDS011;52027;50.658;14.004;2022-12-24T04:02:45;9.73;;;5.80;;
65418;SDS011;52027;50.658;14.004;2022-12-24T04:05:15;9.65;;;5.80;;
65418;SDS011;52027;50.658;14.004;2022-12-24T04:07:42;9.23;;;5.55;;
65418;SDS011;52027;50.658;14.004;2022-12-24T04:10:09;9.93;;;5.75;;
65418;SDS011;52027;50.658;14.004;2022-12-24T04:12:35;10.18;;;5.90;;
65418;SDS011;52027;50.658;14.004;2022-12-24T04:15:01;9.48;;;5.72;;
65418;SDS011;52027;50.658;14.004;2022-12-24T04:17:26;9.88;;;5.55;;
65418;SDS011;52027;50.658;14.004;2022-12-24T04:19:51;10.23;;;6.18;;
65418;SDS011;52027;50.658;14.004;2022-12-24T04:22:17;9.13;;;5.18;;
65418;SDS011;52027;50.658;14.004;2022-12-24T04:24:42;10.20;;;6.00;;
65418;SDS011;52027;50.658;14.004;2022-12-24T04:27:07;9.05;;;5.80;;
65418;SDS011;52027;50.658;14.004;2022-12-24T04:29:33;10.07;;;5.70;;
65418;SDS011;52027;50.658;14.004;2022-12-24T04:31:58;10.43;;;6.10;;
65418;SDS011;52027;50.658;14.004;2022-12-24T04:34:23;9.07;;;5.57;;
65418;SDS011;52027;50.658;14.004;2022-12-24T04:36:49;9.50;;;5.70;;
65418;SDS011;52027;50.658;14.004;2022-12-24T04:39:14;9.18;;;5.70;;
65418;SDS011;52027;50.658;14.004;2022-12-24T04:41:40;9.52;;;5.70;;
65418;SDS011;52027;50.658;14.004;2022-12-24T04:44:05;9.50;;;5.55;;
65418;SDS011;52027;50.658;14.004;2022-12-24T04:46:30;11.07;;;6.15;;
65418;SDS011;52027;50.658;14.004;2022-12-24T04:48:56;9.02;;;5.72;;
65418;SDS011;52027;50.658;14.004;2022-12-24T04:51:22;8.40;;;5.68;;
65418;SDS011;52027;50.658;14.004;2022-12-24T04:53:49;9.80;;;5.70;;
65418;SDS011;52027;50.658;14.004;2022-12-24T04:56:16;10.18;;;5.80;;
65418;SDS011;52027;50.658;14.004;2022-12-24T04:58:48;9.70;;;5.57;;
65418;SDS011;52027;50.658;14.004;2022-12-24T05:01:16;9.35;;;5.45;;
65418;SDS011;52027;50.658;14.004;2022-12-24T05:03:43;8.63;;;5.43;;
65418;SDS011;52027;50.658;14.004;2022-12-24T05:06:10;8.90;;;5.30;;
65418;SDS011;52027;50.658;14.004;2022-12-24T05:08:37;8.63;;;5.32;;
65418;SDS011;52027;50.658;14.004;2022-12-24T05:11:03;9.80;;;5.80;;
65418;SDS011;52027;50.658;14.004;2022-12-24T05:13:29;10.05;;;5.78;;
65418;SDS011;52027;50.658;14.004;2022-12-24T05:15:55;9.55;;;5.85;;
65418;SDS011;52027;50.658;14.004;2022-12-24T05:18:21;9.23;;;5.50;;
65418;SDS011;52027;50.658;14.004;2022-12-24T05:20:46;9.95;;;5.70;;
65418;SDS011;52027;50.658;14.004;2022-12-24T05:23:16;9.02;;;5.47;;
65418;SDS011;52027;50.658;14.004;2022-12-24T05:26:11;9.77;;;5.93;;
65418;SDS011;52027;50.658;14.004;2022-12-24T05:28:51;9.30;;;5.85;;
65418;SDS011;52027;50.658;14.004;2022-12-24T05:31:19;9.40;;;5.38;;
65418;SDS011;52027;50.658;14.004;2022-12-24T05:33:45;9.07;;;5.50;;
65418;SDS011;52027;50.658;14.004;2022-12-24T05:36:11;9.88;;;5.90;;
65418;SDS011;52027;50.658;14.004;2022-12-24T05:38:36;8.98;;;5.78;;
65418;SDS011;52027;50.658;14.004;2022-12-24T05:41:02;10.30;;;5.80;;
65418;SDS011;52027;50.658;14.004;2022-12-24T05:43:27;10.23;;;5.72;;
65418;SDS011;52027;50.658;14.004;2022-12-24T05:45:57;9.18;;;5.68;;
65418;SDS011;52027;50.658;14.004;2022-12-24T05:48:24;9.30;;;5.70;;
65418;SDS011;52027;50.658;14.004;2022-12-24T05:50:50;9.23;;;5.63;;
65418;SDS011;52027;50.658;14.004;2022-12-24T05:53:15;8.88;;;5.45;;
65418;SDS011;52027;50.658;14.004;2022-12-24T05:55:41;10.45;;;5.78;;
65418;SDS011;52027;50.658;14.004;2022-12-24T05:58:06;8.90;;;5.28;;
65418;SDS011;52027;50.658;14.004;2022-12-24T06:00:31;8.75;;;5.53;;
65418;SDS011;52027;50.658;14.004;2022-12-24T06:02:57;8.23;;;5.32;;
65418;SDS011;52027;50.658;14.004;2022-12-24T06:05:22;8.93;;;5.90;;
65418;SDS011;52027;50.658;14.004;2022-12-24T06:07:48;10.00;;;5.57;;
65418;SDS011;52027;50.658;14.004;2022-12-24T06:10:13;8.73;;;5.22;;
65418;SDS011;52027;50.658;14.004;2022-12-24T06:12:38;8.98;;;5.50;;
65418;SDS011;52027;50.658;14.004;2022-12-24T06:15:04;8.75;;;5.32;;
65418;SDS011;52027;50.658;14.004;2022-12-24T06:17:29;10.38;;;5.70;;
65418;SDS011;52027;50.658;14.004;2022-12-24T06:19:55;8.40;;;5.07;;
65418;SDS011;52027;50.658;14.004;2022-12-24T06:22:20;8.63;;;5.25;;
65418;SDS011;52027;50.658;14.004;2022-12-24T06:24:45;8.88;;;5.45;;
65418;SDS011;52027;50.658;14.004;2022-12-24T06:27:11;8.60;;;5.07;;
65418;SDS011;52027;50.658;14.004;2022-12-24T06:29:36;8.70;;;5.20;;
65418;SDS011;52027;50.658;14.004;2022-12-24T06:32:01;10.00;;;5.72;;
65418;SDS011;52027;50.658;14.004;2022-12-24T06:34:27;8.07;;;5.28;;
65418;SDS011;52027;50.658;14.004;2022-12-24T06:36:52;9.32;;;5.38;;
65418;SDS011;52027;50.658;14.004;2022-12-24T06:39:17;9.13;;;5.68;;
65418;SDS011;52027;50.658;14.004;2022-12-24T06:41:43;8.32;;;5.18;;
65418;SDS011;52027;50.658;14.004;2022-12-24T06:44:08;8.73;;;5.50;;
65418;SDS011;52027;50.658;14.004;2022-12-24T06:46:34;8.80;;;5.22;;
65418;SDS011;52027;50.658;14.004;2022-12-24T06:48:59;8.77;;;5.32;;
65418;SDS011;52027;50.658;14.004;2022-12-24T06:51:24;8.52;;;5.10;;
65418;SDS011;52027;50.658;14.004;2022-12-24T06:53:50;8.27;;;5.25;;
65418;SDS011;52027;50.658;14.004;2022-12-24T06:56:15;7.78;;;4.95;;
65418;SDS011;52027;50.658;14.004;2022-12-24T06:58:41;9.50;;;5.35;;
65418;SDS011;52027;50.658;14.004;2022-12-24T07:01:08;8.65;;;5.45;;
65418;SDS011;52027;50.658;14.004;2022-12-24T07:03:35;8.02;;;5.38;;
65418;SDS011;52027;50.658;14.004;2022-12-24T07:06:01;9.15;;;5.53;;
65418;SDS011;52027;50.658;14.004;2022-12-24T07:08:26;8.95;;;5.30;;
65418;SDS011;52027;50.658;14.004;2022-12-24T07:10:52;8.90;;;5.38;;
65418;SDS011;52027;50.658;14.004;2022-12-24T07:13:18;8.25;;;5.35;;
65418;SDS011;52027;50.658;14.004;2022-12-24T07:15:43;9.50;;;5.75;;
65418;SDS011;52027;50.658;14.004;2022-12-24T07:18:09;10.00;;;5.28;;
65418;SDS011;52027;50.658;14.004;2022-12-24T07:20:34;9.65;;;5.20;;
65418;SDS011;52027;50.658;14.004;2022-12-24T07:23:00;8.70;;;4.93;;
65418;SDS011;52027;50.658;14.004;2022-12-24T07:25:25;9.00;;;5.28;;
65418;SDS011;52027;50.658;14.004;2022-12-24T07:27:50;8.65;;;5.05;;
65418;SDS011;52027;50.658;14.004;2022-12-24T07:30:16;8.80;;;5.28;;
65418;SDS011;52027;50.658;14.004;2022-12-24T07:32:42;8.90;;;5.45;;
65418;SDS011;52027;50.658;14.004;2022-12-24T07:35:07;8.00;;;4.85;;
65418;SDS011;52027;50.658;14.004;2022-12-24T07:37:33;8.20;;;5.18;;
65418;SDS011;52027;50.658;14.004;2022-12-24T07:39:58;8.88;;;5.28;;
65418;SDS011;52027;50.658;14.004;2022-12-24T07:42:23;8.13;;;5.10;;
65418;SDS011;52027;50.658;14.004;2022-12-24T07:44:49;7.75;;;4.80;;
65418;SDS011;52027;50.658;14.004;2022-12-24T07:47:14;8.52;;;5.13;;
65418;SDS011;52027;50.658;14.004;2022-12-24T07:49:40;7.93;;;5.28;;
65418;SDS011;52027;50.658;14.004;2022-12-24T07:52:05;9.13;;;5.32;;
65418;SDS011;52027;50.658;14.004;2022-12-24T07:54:31;8.10;;;5.03;;
65418;SDS011;52027;50.658;14.004;2022-12-24T07:56:56;9.30;;;5.30;;
65418;SDS011;52027;50.658;14.004;2022-12-24T07:59:21;7.85;;;4.90;;
65418;SDS011;52027;50.658;14.004;2022-12-24T08:01:47;8.20;;;5.10;;
65418;SDS011;52027;50.658;14.004;2022-12-24T08:04:12;8.43;;;5.00;;
65418;SDS011;52027;50.658;14.004;2022-12-24T08:06:38;8.88;;;5.18;;
65418;SDS011;52027;50.658;14.004;2022-12-24T08:09:03;8.98;;;5.07;;
65418;SDS011;52027;50.658;14.004;2022-12-24T08:11:29;7.90;;;4.93;;
65418;SDS011;52027;50.658;14.004;2022-12-24T08:13:54;8.00;;;5.10;;
65418;SDS011;52027;50.658;14.004;2022-12-24T08:16:20;9.68;;;5.03;;
65418;SDS011;52027;50.658;14.004;2022-12-24T08:18:45;8.02;;;5.10;;
65418;SDS011;52027;50.658;14.004;2022-12-24T08:21:10;7.82;;;4.90;;
65418;SDS011;52027;50.658;14.004;2022-12-24T08:23:36;8.05;;;4.82;;
65418;SDS011;52027;50.658;14.004;2022-12-24T08:26:02;8.10;;;5.03;;
65418;SDS011;52027;50.658;14.004;2022-12-24T08:28:30;8.20;;;5.10;;
65418;SDS011;52027;50.658;14.004;2022-12-24T08:30:55;7.30;;;4.65;;
65418;SDS011;52027;50.658;14.004;2022-12-24T08:33:20;8.18;;;4.82;;
65418;SDS011;52027;50.658;14.004;2022-12-24T08:35:49;8.10;;;5.03;;
65418;SDS011;52027;50.658;14.004;2022-12-24T08:38:16;7.07;;;4.50;;
65418;SDS011;52027;50.658;14.004;2022-12-24T08:40:42;8.50;;;4.63;;
65418;SDS011;52027;50.658;14.004;2022-12-24T08:43:08;7.88;;;4.88;;
65418;SDS011;52027;50.658;14.004;2022-12-24T08:45:34;8.07;;;4.93;;
65418;SDS011;52027;50.658;14.004;2022-12-24T08:47:59;8.95;;;5.32;;
65418;SDS011;52027;50.658;14.004;2022-12-24T08:50:25;8.40;;;5.25;;
65418;SDS011;52027;50.658;14.004;2022-12-24T08:52:52;7.97;;;4.85;;
65418;SDS011;52027;50.658;14.004;2022-12-24T08:55:17;9.13;;;5.00;;
65418;SDS011;52027;50.658;14.004;2022-12-24T08:57:43;7.97;;;4.70;;
65418;SDS011;52027;50.658;14.004;2022-12-24T09:00:10;7.65;;;4.75;;
65418;SDS011;52027;50.658;14.004;2022-12-24T09:02:36;8.00;;;4.93;;
65418;SDS011;52027;50.658;14.004;2022-12-24T09:05:01;8.35;;;5.10;;
65418;SDS011;52027;50.658;14.004;2022-12-24T09:07:27;7.47;;;4.63;;
65418;SDS011;52027;50.658;14.004;2022-12-24T09:09:52;7.60;;;4.70;;
65418;SDS011;52027;50.658;14.004;2022-12-24T09:12:18;7.13;;;4.78;;
65418;SDS011;52027;50.658;14.004;2022-12-24T09:14:43;7.63;;;4.70;;
65418;SDS011;52027;50.658;14.004;2022-12-24T09:17:08;7.70;;;4.68;;
65418;SDS011;52027;50.658;14.004;2022-12-24T09:19:34;8.07;;;4.82;;
65418;SDS011;52027;50.658;14.004;2022-12-24T09:21:59;8.35;;;5.07;;
65418;SDS011;52027;50.658;14.004;2022-12-24T09:24:24;7.75;;;4.70;;
65418;SDS011;52027;50.658;14.004;2022-12-24T09:26:50;7.47;;;4.63;;
65418;SDS011;52027;50.658;14.004;2022-12-24T09:29:15;7.68;;;4.57;;
65418;SDS011;52027;50.658;14.004;2022-12-24T09:31:41;7.05;;;4.63;;
65418;SDS011;52027;50.658;14.004;2022-12-24T09:34:06;7.90;;;4.63;;
65418;SDS011;52027;50.658;14.004;2022-12-24T09:36:32;7.63;;;4.65;;
65418;SDS011;52027;50.658;14.004;2022-12-24T09:38:58;7.55;;;4.60;;
65418;SDS011;52027;50.658;14.004;2022-12-24T09:46:59;7.40;;;4.65;;
65418;SDS011;52027;50.658;14.004;2022-12-24T09:49:34;7.80;;;4.53;;
65418;SDS011;52027;50.658;14.004;2022-12-24T09:52:13;7.53;;;4.53;;
65418;SDS011;52027;50.658;14.004;2022-12-24T09:57:20;7.28;;;4.32;;
65418;SDS011;52027;50.658;14.004;2022-12-24T09:59:52;7.40;;;4.53;;
65418;SDS011;52027;50.658;14.004;2022-12-24T10:02:18;6.90;;;4.53;;
65418;SDS011;52027;50.658;14.004;2022-12-24T10:04:44;7.72;;;4.60;;
65418;SDS011;52027;50.658;14.004;2022-12-24T10:13:16;7.00;;;4.40;;
65418;SDS011;52027;50.658;14.004;2022-12-24T10:16:17;6.88;;;4.20;;
65418;SDS011;52027;50.658;14.004;2022-12-24T10:19:22;7.32;;;4.40;;
65418;SDS011;52027;50.658;14.004;2022-12-24T10:22:06;7.07;;;4.32;;
65418;SDS011;52027;50.658;14.004;2022-12-24T10:24:43;7.68;;;4.35;;
65418;SDS011;52027;50.658;14.004;2022-12-24T10:27:15;8.05;;;4.40;;
65418;SDS011;52027;50.658;14.004;2022-12-24T10:29:46;6.15;;;4.10;;
65418;SDS011;52027;50.658;14.004;2022-12-24T10:32:20;7.20;;;4.40;;
65418;SDS011;52027;50.658;14.004;2022-12-24T10:34:51;7.65;;;4.50;;
65418;SDS011;52027;50.658;14.004;2022-12-24T10:37:22;6.53;;;4.13;;
65418;SDS011;52027;50.658;14.004;2022-12-24T10:39:49;7.60;;;4.32;;
65418;SDS011;52027;50.658;14.004;2022-12-24T10:42:15;8.32;;;4.32;;
65418;SDS011;52027;50.658;14.004;2022-12-24T10:44:42;6.60;;;4.18;;
65418;SDS011;52027;50.658;14.004;2022-12-24T10:47:13;6.35;;;3.88;;
65418;SDS011;52027;50.658;14.004;2022-12-24T10:49:43;7.22;;;4.60;;
65418;SDS011;52027;50.658;14.004;2022-12-24T10:52:18;6.68;;;4.18;;
65418;SDS011;52027;50.658;14.004;2022-12-24T10:55:06;6.80;;;4.45;;
65418;SDS011;52027;50.658;14.004;2022-12-24T10:57:35;6.03;;;3.90;;
65418;SDS011;52027;50.658;14.004;2022-12-24T11:00:01;7.97;;;4.43;;
65418;SDS011;52027;50.658;14.004;2022-12-24T11:02:31;7.38;;;4.20;;
65418;SDS011;52027;50.658;14.004;2022-12-24T11:05:01;7.10;;;4.00;;
65418;SDS011;52027;50.658;14.004;2022-12-24T11:07:30;6.93;;;4.20;;
65418;SDS011;52027;50.658;14.004;2022-12-24T11:10:04;6.97;;;4.35;;
65418;SDS011;52027;50.658;14.004;2022-12-24T11:12:32;8.50;;;4.28;;
65418;SDS011;52027;50.658;14.004;2022-12-24T11:15:05;6.72;;;4.10;;
65418;SDS011;52027;50.658;14.004;2022-12-24T11:17:40;6.75;;;4.03;;
65418;SDS011;52027;50.658;14.004;2022-12-24T11:20:06;6.97;;;4.22;;
65418;SDS011;52027;50.658;14.004;2022-12-24T11:22:40;7.07;;;4.45;;
65418;SDS011;52027;50.658;14.004;2022-12-24T11:25:07;6.93;;;4.10;;
65418;SDS011;52027;50.658;14.004;2022-12-24T11:27:45;6.70;;;4.00;;
65418;SDS011;52027;50.658;14.004;2022-12-24T11:32:43;7.38;;;4.13;;
65418;SDS011;52027;50.658;14.004;2022-12-24T11:35:38;6.50;;;4.10;;
65418;SDS011;52027;50.658;14.004;2022-12-24T11:38:10;6.68;;;3.90;;
65418;SDS011;52027;50.658;14.004;2022-12-24T11:40:42;6.88;;;4.13;;
65418;SDS011;52027;50.658;14.004;2022-12-24T11:43:20;7.03;;;4.05;;
65418;SDS011;52027;50.658;14.004;2022-12-24T11:45:55;6.82;;;4.05;;
65418;SDS011;52027;50.658;14.004;2022-12-24T11:48:31;6.60;;;3.90;;
65418;SDS011;52027;50.658;14.004;2022-12-24T11:50:59;6.07;;;4.10;;
65418;SDS011;52027;50.658;14.004;2022-12-24T11:56:16;6.90;;;4.38;;
65418;SDS011;52027;50.658;14.004;2022-12-24T11:58:53;6.70;;;4.10;;
65418;SDS011;52027;50.658;14.004;2022-12-24T12:01:36;6.78;;;4.07;;
65418;SDS011;52027;50.658;14.004;2022-12-24T12:04:14;6.45;;;4.20;;
65418;SDS011;52027;50.658;14.004;2022-12-24T12:09:23;6.60;;;4.10;;
65418;SDS011;52027;50.658;14.004;2022-12-24T12:11:59;6.60;;;4.00;;
65418;SDS011;52027;50.658;14.004;2022-12-24T12:14:31;6.82;;;3.90;;
65418;SDS011;52027;50.658;14.004;2022-12-24T12:20:05;5.68;;;3.70;;
65418;SDS011;52027;50.658;14.004;2022-12-24T12:22:38;6.32;;;4.00;;
65418;SDS011;52027;50.658;14.004;2022-12-24T12:25:21;6.85;;;4.20;;
65418;SDS011;52027;50.658;14.004;2022-12-24T12:27:51;6.60;;;3.95;;
65418;SDS011;52027;50.658;14.004;2022-12-24T12:30:20;6.85;;;3.90;;
65418;SDS011;52027;50.658;14.004;2022-12-24T12:32:56;6.43;;;3.90;;
65418;SDS011;52027;50.658;14.004;2022-12-24T12:35:32;6.22;;;3.70;;
65418;SDS011;52027;50.658;14.004;2022-12-24T12:38:03;6.85;;;4.18;;
65418;SDS011;52027;50.658;14.004;2022-12-24T12:57:00;5.72;;;3.53;;
65418;SDS011;52027;50.658;14.004;2022-12-24T12:59:40;6.20;;;3.80;;
65418;SDS011;52027;50.658;14.004;2022-12-24T13:07:42;6.85;;;3.72;;
65418;SDS011;52027;50.658;14.004;2022-12-24T13:10:18;6.30;;;3.75;;
65418;SDS011;52027;50.658;14.004;2022-12-24T13:20:40;6.13;;;3.78;;
65418;SDS011;52027;50.658;14.004;2022-12-24T13:25:42;5.60;;;3.47;;
65418;SDS011;52027;50.658;14.004;2022-12-24T13:30:44;6.70;;;3.80;;
65418;SDS011;52027;50.658;14.004;2022-12-24T13:33:12;6.25;;;3.80;;
65418;SDS011;52027;50.658;14.004;2022-12-24T13:35:58;5.95;;;3.67;;
65418;SDS011;52027;50.658;14.004;2022-12-24T13:40:50;6.80;;;4.00;;
65418;SDS011;52027;50.658;14.004;2022-12-24T13:43:16;7.05;;;4.00;;
65418;SDS011;52027;50.658;14.004;2022-12-24T13:45:43;6.55;;;3.95;;
65418;SDS011;52027;50.658;14.004;2022-12-24T13:50:57;4.97;;;3.35;;
65418;SDS011;52027;50.658;14.004;2022-12-24T13:58:44;5.50;;;3.55;;
65418;SDS011;52027;50.658;14.004;2022-12-24T14:01:15;6.13;;;3.57;;
65418;SDS011;52027;50.658;14.004;2022-12-24T14:08:44;5.55;;;3.38;;
65418;SDS011;52027;50.658;14.004;2022-12-24T14:18:47;6.60;;;3.70;;
65418;SDS011;52027;50.658;14.004;2022-12-24T14:21:22;5.93;;;3.65;;
65418;SDS011;52027;50.658;14.004;2022-12-24T14:23:55;6.15;;;3.83;;
65418;SDS011;52027;50.658;14.004;2022-12-24T14:26:23;5.70;;;3.60;;
65418;SDS011;52027;50.658;14.004;2022-12-24T14:28:54;5.38;;;3.30;;
65418;SDS011;52027;50.658;14.004;2022-12-24T14:31:21;6.18;;;3.60;;
65418;SDS011;52027;50.658;14.004;2022-12-24T14:33:47;5.97;;;3.78;;
65418;SDS011;52027;50.658;14.004;2022-12-24T14:36:13;6.13;;;3.63;;
65418;SDS011;52027;50.658;14.004;2022-12-24T14:38:45;6.43;;;3.50;;
65418;SDS011;52027;50.658;14.004;2022-12-24T14:41:15;5.95;;;3.50;;
65418;SDS011;52027;50.658;14.004;2022-12-24T14:43:51;6.60;;;3.80;;
65418;SDS011;52027;50.658;14.004;2022-12-24T14:46:33;5.93;;;3.42;;
65418;SDS011;52027;50.658;14.004;2022-12-24T14:49:10;6.43;;;3.80;;
65418;SDS011;52027;50.658;14.004;2022-12-24T14:51:56;5.25;;;3.40;;
65418;SDS011;52027;50.658;14.004;2022-12-24T14:57:09;5.88;;;3.70;;
65418;SDS011;52027;50.658;14.004;2022-12-24T15:02:22;5.88;;;3.40;;
65418;SDS011;52027;50.658;14.004;2022-12-24T15:07:31;5.20;;;3.30;;
65418;SDS011;52027;50.658;14.004;2022-12-24T15:09:58;5.70;;;3.50;;
65418;SDS011;52027;50.658;14.004;2022-12-24T15:12:25;4.82;;;3.13;;
65418;SDS011;52027;50.658;14.004;2022-12-24T15:14:50;4.93;;;3.15;;
65418;SDS011;52027;50.658;14.004;2022-12-24T15:17:16;5.60;;;3.30;;
65418;SDS011;52027;50.658;14.004;2022-12-24T15:19:42;5.55;;;3.50;;
65418;SDS011;52027;50.658;14.004;2022-12-24T15:22:24;5.20;;;3.30;;
65418;SDS011;52027;50.658;14.004;2022-12-24T15:24:52;5.00;;;3.30;;
65418;SDS011;52027;50.658;14.004;2022-12-24T15:27:20;5.88;;;3.70;;
65418;SDS011;52027;50.658;14.004;2022-12-24T15:29:52;5.97;;;3.40;;
65418;SDS011;52027;50.658;14.004;2022-12-24T15:32:19;5.30;;;3.50;;
65418;SDS011;52027;50.658;14.004;2022-12-24T15:34:46;6.30;;;3.60;;
65418;SDS011;52027;50.658;14.004;2022-12-24T15:37:15;5.45;;;3.30;;
65418;SDS011;52027;50.658;14.004;2022-12-24T15:42:27;5.97;;;3.38;;
65418;SDS011;52027;50.658;14.004;2022-12-24T15:45:00;5.82;;;3.40;;
65418;SDS011;52027;50.658;14.004;2022-12-24T15:47:30;5.65;;;3.33;;
65418;SDS011;52027;50.658;14.004;2022-12-24T15:50:02;5.60;;;3.50;;
65418;SDS011;52027;50.658;14.004;2022-12-24T15:52:29;5.63;;;3.50;;
65418;SDS011;52027;50.658;14.004;2022-12-24T15:54:55;5.32;;;3.30;;
65418;SDS011;52027;50.658;14.004;2022-12-24T15:57:25;5.43;;;3.40;;
65418;SDS011;52027;50.658;14.004;2022-12-24T15:59:55;6.70;;;3.50;;
65418;SDS011;52027;50.658;14.004;2022-12-24T16:02:35;5.63;;;3.20;;
65418;SDS011;52027;50.658;14.004;2022-12-24T16:08:01;5.65;;;3.30;;
65418;SDS011;52027;50.658;14.004;2022-12-24T16:10:43;6.00;;;3.40;;
65418;SDS011;52027;50.658;14.004;2022-12-24T16:15:53;5.22;;;3.28;;
65418;SDS011;52027;50.658;14.004;2022-12-24T16:21:00;4.72;;;3.10;;
65418;SDS011;52027;50.658;14.004;2022-12-24T16:26:01;5.43;;;3.20;;
65418;SDS011;52027;50.658;14.004;2022-12-24T16:28:26;5.85;;;3.38;;
65418;SDS011;52027;50.658;14.004;2022-12-24T16:30:52;4.57;;;2.97;;
65418;SDS011;52027;50.658;14.004;2022-12-24T16:33:19;4.95;;;3.13;;
65418;SDS011;52027;50.658;14.004;2022-12-24T16:35:45;5.53;;;3.25;;
65418;SDS011;52027;50.658;14.004;2022-12-24T16:38:11;4.70;;;3.00;;
65418;SDS011;52027;50.658;14.004;2022-12-24T16:40:38;5.60;;;3.45;;
65418;SDS011;52027;50.658;14.004;2022-12-24T16:43:04;6.03;;;3.40;;
65418;SDS011;52027;50.658;14.004;2022-12-24T16:45:48;5.57;;;3.25;;
65418;SDS011;52027;50.658;14.004;2022-12-24T16:48:16;5.22;;;3.15;;
65418;SDS011;52027;50.658;14.004;2022-12-24T16:50:46;5.75;;;3.30;;
65418;SDS011;52027;50.658;14.004;2022-12-24T16:53:15;5.30;;;3.15;;
65418;SDS011;52027;50.658;14.004;2022-12-24T16:55:42;5.38;;;3.40;;
65418;SDS011;52027;50.658;14.004;2022-12-24T16:58:11;5.63;;;3.28;;